Time;durP1;ratioP1;P1;durP2;ratioP2;P2;SDS_P1;SDS_P2;PMS_P1;PMS_P2;Temp;Humidity;BMP_temperature;BMP_pressure;BME280_temperature;BME280_humidity;BME280_pressure;Samples;Min_cycle;Max_cycle;Signal;HPM_P1;HPM_P2
2023/02/19 00:00:44;;;;;;;8.97;4.40;;;5.80;99.90;;;;;;4410312;28;657510;-86
2023/02/19 00:03:31;;;;;;;8.80;4.77;;;5.70;99.90;;;;;;4389830;28;657000;-83
2023/02/19 00:06:19;;;;;;;9.77;4.80;;;5.80;99.90;;;;;;4402238;28;657034;-84
2023/02/19 00:09:06;;;;;;;7.47;4.60;;;5.70;99.90;;;;;;4387183;28;656647;-79
2023/02/19 00:11:55;;;;;;;9.50;4.87;;;5.70;99.90;;;;;;4407997;28;657002;-86
2023/02/19 00:14:42;;;;;;;6.40;3.80;;;5.80;99.90;;;;;;4382650;28;657492;-84
2023/02/19 00:17:30;;;;;;;9.73;4.73;;;5.80;99.90;;;;;;4411123;28;656038;-82
2023/02/19 00:20:18;;;;;;;8.87;4.17;;;5.70;99.90;;;;;;4385457;28;657384;-82
2023/02/19 00:23:05;;;;;;;9.37;4.80;;;5.70;99.90;;;;;;4387144;28;656750;-75
2023/02/19 00:25:52;;;;;;;8.60;4.70;;;5.70;99.90;;;;;;4409460;28;656212;-87
2023/02/19 00:28:42;;;;;;;7.47;3.97;;;5.60;99.90;;;;;;4409677;28;655610;-77
2023/02/19 00:31:29;;;;;;;7.67;3.70;;;5.60;99.90;;;;;;4409093;28;657431;-86
2023/02/19 00:34:16;;;;;;;6.10;3.23;;;5.60;99.90;;;;;;4382376;28;657320;-85
2023/02/19 00:37:04;;;;;;;5.47;3.47;;;5.50;99.90;;;;;;4406660;28;657069;-83
2023/02/19 00:39:51;;;;;;;6.67;3.73;;;5.50;99.90;;;;;;4385194;28;656847;-83
2023/02/19 00:42:38;;;;;;;6.73;3.23;;;5.50;99.90;;;;;;4406465;28;657544;-85
2023/02/19 00:45:27;;;;;;;6.72;3.10;;;5.50;99.90;;;;;;4384900;28;656692;-79
2023/02/19 00:48:14;;;;;;;5.67;3.13;;;5.50;99.90;;;;;;4409788;28;656316;-81
2023/02/19 00:51:01;;;;;;;8.87;3.63;;;5.50;99.90;;;;;;4386297;28;657666;-86
2023/02/19 00:53:48;;;;;;;6.23;2.87;;;5.50;99.90;;;;;;4407762;28;658182;-83
2023/02/19 00:56:36;;;;;;;5.90;3.00;;;5.50;99.90;;;;;;4390644;28;656832;-81
2023/02/19 00:59:23;;;;;;;5.57;2.53;;;5.50;99.90;;;;;;4406779;28;657805;-82
2023/02/19 01:02:12;;;;;;;6.07;2.80;;;5.40;99.90;;;;;;4387978;28;656482;-79
2023/02/19 01:04:59;;;;;;;5.20;2.70;;;5.40;99.90;;;;;;4407275;28;658888;-87
2023/02/19 01:07:46;;;;;;;6.87;3.53;;;5.40;99.90;;;;;;4386613;28;656467;-84
2023/02/19 01:10:33;;;;;;;4.97;3.08;;;5.40;99.90;;;;;;4410936;28;656451;-87
2023/02/19 01:13:20;;;;;;;8.67;3.50;;;5.40;99.90;;;;;;4386924;28;656870;-79
2023/02/19 01:16:09;;;;;;;6.07;3.40;;;5.40;99.90;;;;;;4409786;28;657177;-77
2023/02/19 01:18:57;;;;;;;6.60;3.97;;;5.50;99.90;;;;;;4391603;28;656369;-83
2023/02/19 01:21:44;;;;;;;6.03;4.03;;;5.50;99.90;;;;;;4412185;28;656098;-82
2023/02/19 01:24:32;;;;;;;7.60;4.90;;;5.50;99.90;;;;;;4385271;28;656542;-81
2023/02/19 01:27:19;;;;;;;13.70;5.10;;;5.60;99.90;;;;;;4412328;28;656362;-81
2023/02/19 01:30:07;;;;;;;9.37;6.00;;;5.50;99.90;;;;;;4383129;28;657759;-77
2023/02/19 01:32:54;;;;;;;9.25;6.15;;;5.50;99.90;;;;;;4405824;28;657235;-85
2023/02/19 01:35:43;;;;;;;6.23;4.40;;;5.50;99.90;;;;;;4378272;28;656531;-86
2023/02/19 01:38:30;;;;;;;7.50;5.10;;;5.50;99.90;;;;;;4385656;28;656406;-76
2023/02/19 01:41:19;;;;;;;8.17;4.47;;;5.40;99.90;;;;;;4404818;28;656186;-79
2023/02/19 01:44:07;;;;;;;9.37;4.77;;;5.40;99.90;;;;;;4382142;28;657252;-80
2023/02/19 01:46:56;;;;;;;6.90;3.90;;;5.40;99.90;;;;;;4408155;28;656431;-89
2023/02/19 01:49:47;;;;;;;9.57;4.30;;;5.30;99.90;;;;;;4387725;28;657009;-87
2023/02/19 01:52:36;;;;;;;7.40;4.33;;;5.40;99.90;;;;;;4389700;28;657862;-85
2023/02/19 01:55:23;;;;;;;7.07;4.33;;;5.30;99.90;;;;;;4382904;28;656792;-85
2023/02/19 01:58:10;;;;;;;6.60;4.63;;;5.30;99.90;;;;;;4381890;28;656621;-80
2023/02/19 02:00:58;;;;;;;7.20;4.30;;;5.30;99.90;;;;;;4395581;28;657492;-86
2023/02/19 02:03:47;;;;;;;8.27;4.72;;;5.30;99.90;;;;;;4385253;28;656946;-78
2023/02/19 02:06:36;;;;;;;7.20;4.33;;;5.30;99.90;;;;;;4403241;28;656838;-86
2023/02/19 02:12:31;;;;;;;5.13;3.33;;;5.30;99.90;;;;;;4356538;28;656683;-74
2023/02/19 02:15:18;;;;;;;7.93;4.20;;;5.40;99.90;;;;;;4404157;28;657532;-77
2023/02/19 02:18:07;;;;;;;8.10;4.57;;;5.40;99.90;;;;;;4388584;28;656559;-80
2023/02/19 02:21:37;;;;;;;8.53;4.87;;;5.30;99.90;;;;;;4400603;28;656291;-78
2023/02/19 02:25:18;;;;;;;6.10;3.87;;;5.40;99.90;;;;;;4375065;28;656518;-78
2023/02/19 02:28:16;;;;;;;7.77;4.40;;;5.40;99.90;;;;;;4311758;28;657293;-77
2023/02/19 02:31:04;;;;;;;6.43;4.27;;;5.40;99.90;;;;;;4382664;28;656428;-87
2023/02/19 02:33:57;;;;;;;8.33;4.60;;;5.40;99.90;;;;;;4384819;28;658211;-83
2023/02/19 02:36:45;;;;;;;6.40;4.63;;;5.40;99.90;;;;;;4386863;28;656301;-85
2023/02/19 02:39:32;;;;;;;9.43;5.20;;;5.40;99.90;;;;;;4378860;28;657561;-87
2023/02/19 02:42:29;;;;;;;8.20;4.83;;;5.40;99.90;;;;;;4403148;28;656249;-79
2023/02/19 02:45:36;;;;;;;7.57;5.10;;;5.30;99.90;;;;;;4387338;28;656287;-84
2023/02/19 02:48:28;;;;;;;9.70;6.13;;;5.40;99.90;;;;;;4381073;28;656638;-86
2023/02/19 02:51:17;;;;;;;12.00;7.27;;;5.40;99.90;;;;;;4359412;28;656469;-80
2023/02/19 02:57:13;;;;;;;15.73;7.63;;;5.40;99.90;;;;;;4358772;28;658030;-83
2023/02/19 03:00:00;;;;;;;13.93;9.17;;;5.40;99.90;;;;;;4383390;28;658535;-81
2023/02/19 03:02:47;;;;;;;14.17;9.60;;;5.40;99.90;;;;;;4398868;28;658240;-86
2023/02/19 03:05:53;;;;;;;17.23;10.20;;;5.40;99.90;;;;;;4393371;28;657793;-88
2023/02/19 03:08:42;;;;;;;15.67;10.20;;;5.40;99.90;;;;;;4362115;28;658845;-80
2023/02/19 03:20:50;;;;;;;15.07;9.07;;;5.40;99.90;;;;;;4360817;28;657669;-83
2023/02/19 03:26:42;;;;;;;16.80;10.73;;;5.40;99.90;;;;;;4388178;28;657269;-86
2023/02/19 03:29:30;;;;;;;13.00;8.23;;;5.40;99.90;;;;;;4406278;28;659094;-82
2023/02/19 03:32:20;;;;;;;19.20;10.33;;;5.40;99.90;;;;;;4384212;28;657981;-79
2023/02/19 03:35:10;;;;;;;10.57;6.93;;;5.40;99.90;;;;;;4377463;28;659446;-83
2023/02/19 03:38:02;;;;;;;16.03;9.70;;;5.40;99.90;;;;;;4388201;28;657899;-87
2023/02/19 03:40:53;;;;;;;12.60;8.23;;;5.40;99.90;;;;;;4382839;28;657413;-84
2023/02/19 03:43:41;;;;;;;14.03;8.83;;;5.50;99.90;;;;;;4382588;28;657898;-80
2023/02/19 03:46:32;;;;;;;12.23;7.03;;;5.40;99.90;;;;;;4404259;28;658175;-82
2023/02/19 03:49:24;;;;;;;11.40;7.47;;;5.40;99.90;;;;;;4383266;28;657422;-82
2023/02/19 03:52:13;;;;;;;13.13;6.70;;;5.40;99.90;;;;;;4388069;28;657602;-83
2023/02/19 03:55:04;;;;;;;12.07;8.13;;;5.40;99.90;;;;;;4392933;28;657433;-83
2023/02/19 03:57:53;;;;;;;11.23;7.20;;;5.40;99.90;;;;;;4387073;28;657908;-85
2023/02/19 04:00:42;;;;;;;11.20;7.30;;;5.40;99.90;;;;;;4389626;28;657745;-78
2023/02/19 04:03:33;;;;;;;10.53;6.60;;;5.40;99.90;;;;;;4408301;28;657630;-85
2023/02/19 04:06:23;;;;;;;11.53;6.63;;;5.40;99.90;;;;;;4372232;28;658163;-78
2023/02/19 04:09:11;;;;;;;12.03;7.50;;;5.40;99.90;;;;;;4388399;28;657751;-78
2023/02/19 04:11:59;;;;;;;12.47;7.60;;;5.40;99.90;;;;;;4407558;28;657709;-85
2023/02/19 04:14:49;;;;;;;9.60;6.33;;;5.40;99.90;;;;;;4381124;28;657756;-86
2023/02/19 04:17:37;;;;;;;10.03;6.17;;;5.40;99.90;;;;;;4384319;28;656740;-85
2023/02/19 04:20:25;;;;;;;12.60;7.50;;;5.50;99.90;;;;;;4410071;28;657574;-82
2023/02/19 04:23:12;;;;;;;11.53;6.67;;;5.40;99.90;;;;;;4386638;28;657879;-85
2023/02/19 04:25:59;;;;;;;10.50;6.43;;;5.30;99.90;;;;;;4409009;28;657505;-83
2023/02/19 04:28:48;;;;;;;11.60;7.20;;;5.30;99.90;;;;;;4376327;28;658280;-83
2023/02/19 04:31:36;;;;;;;6.70;3.50;;;5.30;99.90;;;;;;4378308;28;657673;-78
2023/02/19 04:34:23;;;;;;;8.43;5.57;;;5.30;99.90;;;;;;4405658;28;657774;-85
2023/02/19 04:37:10;;;;;;;9.05;5.32;;;5.40;99.90;;;;;;4386121;28;656541;-76
2023/02/19 04:39:57;;;;;;;8.80;5.60;;;5.30;99.90;;;;;;4401681;28;657531;-87
2023/02/19 04:42:45;;;;;;;8.63;5.20;;;5.30;99.90;;;;;;4402315;28;657129;-78
2023/02/19 04:45:34;;;;;;;7.87;4.47;;;5.20;99.90;;;;;;4406504;28;656902;-83
2023/02/19 04:48:21;;;;;;;7.30;4.77;;;5.30;99.90;;;;;;4387089;28;656778;-79
2023/02/19 04:51:08;;;;;;;6.00;4.80;;;5.20;99.90;;;;;;4408645;28;656941;-82
2023/02/19 04:53:56;;;;;;;9.97;5.17;;;5.20;99.90;;;;;;4387160;28;656286;-79
2023/02/19 04:56:43;;;;;;;6.70;4.90;;;5.20;99.90;;;;;;4409678;28;657417;-83
2023/02/19 04:59:30;;;;;;;8.38;4.72;;;5.20;99.90;;;;;;4389945;28;656813;-77
2023/02/19 05:02:19;;;;;;;7.30;4.40;;;5.30;99.90;;;;;;4405639;28;657362;-80
2023/02/19 05:05:06;;;;;;;5.83;3.90;;;5.20;99.90;;;;;;4380469;28;656852;-77
2023/02/19 05:07:54;;;;;;;7.63;3.47;;;5.20;99.90;;;;;;4403104;28;656865;-83
2023/02/19 05:10:41;;;;;;;6.23;3.80;;;5.20;99.90;;;;;;4389269;28;656793;-81
2023/02/19 05:13:28;;;;;;;5.73;3.47;;;5.20;99.90;;;;;;4403719;28;657230;-81
2023/02/19 05:16:16;;;;;;;5.53;4.07;;;5.20;99.90;;;;;;4385377;28;657405;-77
2023/02/19 05:19:04;;;;;;;6.93;4.70;;;5.20;99.90;;;;;;4402870;28;657397;-81
2023/02/19 05:21:51;;;;;;;7.27;4.87;;;5.20;99.90;;;;;;4382646;28;656855;-80
2023/02/19 05:24:39;;;;;;;7.53;5.23;;;5.20;99.90;;;;;;4401408;28;657134;-80
2023/02/19 05:27:26;;;;;;;7.80;5.23;;;5.20;99.90;;;;;;4389846;28;656684;-83
2023/02/19 05:30:13;;;;;;;8.30;5.20;;;5.20;99.90;;;;;;4410567;28;656860;-83
2023/02/19 05:33:00;;;;;;;11.17;5.97;;;5.20;99.90;;;;;;4385029;28;656595;-76
2023/02/19 05:35:50;;;;;;;12.50;7.00;;;5.20;99.90;;;;;;4407485;28;657627;-81
2023/02/19 05:38:37;;;;;;;11.20;7.10;;;5.20;99.90;;;;;;4372883;28;658714;-83
2023/02/19 05:41:26;;;;;;;13.20;7.80;;;5.30;99.90;;;;;;4400311;28;657409;-83
2023/02/19 05:44:13;;;;;;;13.00;7.83;;;5.30;99.90;;;;;;4379616;28;657921;-81
2023/02/19 05:47:00;;;;;;;13.43;8.97;;;5.30;99.90;;;;;;4384563;28;658305;-77
2023/02/19 05:49:47;;;;;;;14.90;9.00;;;5.30;99.90;;;;;;4406116;28;658037;-81
2023/02/19 05:52:37;;;;;;;15.67;9.10;;;5.30;99.90;;;;;;4400535;28;657726;-77
2023/02/19 05:55:24;;;;;;;16.07;8.70;;;5.30;99.90;;;;;;4406921;28;658121;-81
2023/02/19 05:58:11;;;;;;;15.20;9.10;;;5.30;99.90;;;;;;4381648;28;657821;-79
2023/02/19 06:00:58;;;;;;;16.03;9.40;;;5.40;99.90;;;;;;4404600;28;657926;-80
2023/02/19 06:03:45;;;;;;;15.23;8.53;;;5.40;99.90;;;;;;4380454;28;657778;-78
2023/02/19 06:06:33;;;;;;;16.73;8.60;;;5.40;99.90;;;;;;4399620;28;657817;-84
2023/02/19 06:09:22;;;;;;;15.83;8.50;;;5.40;99.90;;;;;;4395108;28;657673;-76
2023/02/19 06:12:09;;;;;;;18.17;9.87;;;5.40;99.90;;;;;;4408808;28;658178;-78
2023/02/19 06:14:56;;;;;;;18.83;9.67;;;5.50;99.90;;;;;;4380641;28;657745;-76
2023/02/19 06:17:43;;;;;;;22.87;10.33;;;5.50;99.90;;;;;;4406620;28;658390;-76
2023/02/19 06:20:31;;;;;;;13.87;8.20;;;5.50;99.90;;;;;;4378549;28;659108;-76
2023/02/19 06:23:19;;;;;;;15.43;7.63;;;5.50;99.90;;;;;;4399848;28;657855;-79
2023/02/19 06:26:09;;;;;;;12.53;7.40;;;5.50;99.90;;;;;;4377076;28;657419;-77
2023/02/19 06:28:56;;;;;;;11.13;6.83;;;5.50;99.90;;;;;;4384266;28;658562;-79
2023/02/19 06:31:44;;;;;;;10.43;6.13;;;5.50;99.90;;;;;;4404069;28;658014;-80
2023/02/19 06:34:31;;;;;;;11.07;5.97;;;5.60;99.90;;;;;;4383480;28;658144;-79
2023/02/19 06:37:18;;;;;;;10.05;5.88;;;5.60;99.90;;;;;;4405417;28;657539;-78
2023/02/19 06:40:06;;;;;;;10.33;5.60;;;5.60;99.90;;;;;;4373327;28;657561;-77
2023/02/19 06:42:55;;;;;;;8.93;5.70;;;5.60;99.90;;;;;;4402916;28;657102;-81
2023/02/19 06:45:42;;;;;;;8.70;4.97;;;5.70;99.90;;;;;;4386092;28;657406;-75
2023/02/19 06:48:30;;;;;;;7.93;4.50;;;5.70;99.90;;;;;;4405969;28;656298;-76
2023/02/19 06:51:21;;;;;;;10.73;4.80;;;5.70;99.90;;;;;;4405895;28;657146;-80
2023/02/19 06:54:08;;;;;;;8.75;4.55;;;5.70;99.90;;;;;;4380274;28;658203;-77
2023/02/19 06:56:57;;;;;;;9.03;4.43;;;5.70;99.90;;;;;;4385447;28;657304;-77
2023/02/19 06:59:47;;;;;;;8.77;4.80;;;5.80;99.90;;;;;;4410854;28;656902;-76
2023/02/19 07:02:34;;;;;;;9.80;5.13;;;5.80;99.90;;;;;;4415376;28;656867;-80
2023/02/19 07:05:21;;;;;;;9.50;5.33;;;5.80;99.90;;;;;;4390420;28;656789;-78
2023/02/19 07:08:08;;;;;;;7.80;4.67;;;5.80;99.90;;;;;;4405016;28;657255;-81
2023/02/19 07:10:56;;;;;;;9.07;5.03;;;5.90;99.90;;;;;;4388398;28;656467;-79
2023/02/19 07:13:43;;;;;;;7.80;4.30;;;5.80;99.90;;;;;;4411988;28;657172;-87
2023/02/19 07:16:32;;;;;;;12.90;5.57;;;5.90;99.90;;;;;;4385245;28;656741;-79
2023/02/19 07:19:19;;;;;;;9.77;5.47;;;5.80;99.90;;;;;;4414287;28;657530;-81
2023/02/19 07:22:06;;;;;;;7.17;5.00;;;5.80;99.90;;;;;;4393890;28;657364;-80
2023/02/19 07:24:54;;;;;;;10.60;5.63;;;5.80;99.90;;;;;;4403673;28;657102;-81
2023/02/19 07:27:41;;;;;;;9.80;6.20;;;5.80;99.90;;;;;;4386206;28;657632;-83
2023/02/19 07:30:28;;;;;;;14.53;7.90;;;5.80;99.90;;;;;;4401974;28;656700;-79
2023/02/19 07:33:17;;;;;;;13.30;8.10;;;5.80;99.90;;;;;;4384921;28;657851;-77
2023/02/19 07:36:06;;;;;;;16.07;9.87;;;5.80;99.90;;;;;;4405950;28;657513;-79
2023/02/19 07:38:55;;;;;;;19.60;9.30;;;5.90;99.90;;;;;;4381139;28;657778;-83
2023/02/19 07:41:42;;;;;;;18.40;9.90;;;5.90;99.90;;;;;;4377522;28;658184;-83
2023/02/19 07:44:29;;;;;;;16.45;8.63;;;5.90;99.90;;;;;;4409281;28;658321;-76
2023/02/19 07:47:16;;;;;;;13.90;8.60;;;6.00;99.90;;;;;;4384747;28;658199;-77
2023/02/19 07:50:05;;;;;;;24.63;15.63;;;6.00;99.90;;;;;;4404123;28;658211;-81
2023/02/19 07:52:53;;;;;;;22.45;12.77;;;5.90;99.90;;;;;;4378028;28;659235;-83
2023/02/19 07:55:40;;;;;;;24.80;15.23;;;6.00;99.90;;;;;;4392089;28;659478;-75
2023/02/19 07:58:27;;;;;;;24.60;13.47;;;6.00;99.90;;;;;;4406949;28;658929;-80
2023/02/19 08:01:16;;;;;;;29.83;15.20;;;6.00;99.90;;;;;;4400466;28;658254;-78
2023/02/19 08:04:02;;;;;;;24.73;14.18;;;6.00;99.90;;;;;;4410135;28;659013;-81
2023/02/19 08:06:52;;;;;;;25.43;13.70;;;6.10;99.90;;;;;;4402833;28;657722;-77
2023/02/19 08:09:40;;;;;;;29.37;15.90;;;6.10;99.90;;;;;;4395796;28;659238;-76
2023/02/19 08:15:33;;;;;;;28.57;14.83;;;6.10;99.90;;;;;;4375984;28;658977;-78
2023/02/19 08:18:21;;;;;;;31.05;15.50;;;6.20;99.90;;;;;;4390907;28;659331;-78
2023/02/19 08:21:09;;;;;;;32.90;16.53;;;6.20;99.90;;;;;;4403260;28;658987;-77
2023/02/19 08:23:58;;;;;;;33.37;18.27;;;6.20;99.90;;;;;;4385451;28;658464;-79
2023/02/19 08:26:45;;;;;;;31.73;17.47;;;6.20;99.90;;;;;;4392116;28;658686;-77
2023/02/19 08:29:33;;;;;;;29.80;15.63;;;6.30;99.90;;;;;;4403716;28;658724;-81
2023/02/19 08:32:21;;;;;;;32.17;18.30;;;6.30;99.90;;;;;;4379550;28;658915;-76
2023/02/19 08:35:08;;;;;;;33.47;17.77;;;6.30;99.90;;;;;;4401658;28;659202;-77
2023/02/19 08:37:56;;;;;;;37.70;19.73;;;6.20;99.90;;;;;;4378713;28;658817;-77
2023/02/19 08:40:44;;;;;;;27.20;11.97;;;6.30;99.90;;;;;;4401821;28;659118;-77
2023/02/19 08:43:31;;;;;;;32.27;18.70;;;6.30;99.90;;;;;;4382256;28;658989;-81
2023/02/19 08:46:19;;;;;;;28.03;15.67;;;6.30;99.90;;;;;;4400936;28;658516;-76
2023/02/19 08:49:06;;;;;;;30.03;16.37;;;6.30;99.90;;;;;;4369570;28;658522;-81
2023/02/19 08:51:53;;;;;;;32.07;17.67;;;6.30;99.90;;;;;;4405626;28;658749;-79
2023/02/19 08:54:40;;;;;;;30.80;17.13;;;6.40;99.90;;;;;;4378249;28;658481;-83
2023/02/19 08:57:29;;;;;;;29.07;17.20;;;6.40;99.90;;;;;;4405111;28;659861;-81
2023/02/19 09:00:17;;;;;;;29.40;15.40;;;6.40;99.90;;;;;;4375575;28;658750;-83
2023/02/19 09:03:04;;;;;;;29.37;16.87;;;6.40;99.90;;;;;;4400978;28;659287;-77
2023/02/19 09:05:51;;;;;;;26.90;15.37;;;6.40;99.90;;;;;;4374410;28;658805;-81
2023/02/19 09:08:38;;;;;;;18.63;11.20;;;6.50;99.90;;;;;;4394384;28;659983;-77
2023/02/19 09:11:26;;;;;;;14.17;4.87;;;6.50;99.90;;;;;;4374677;28;658727;-77
2023/02/19 09:14:14;;;;;;;6.53;4.37;;;6.10;99.90;;;;;;4402924;28;658053;-80
2023/02/19 09:17:02;;;;;;;6.67;3.27;;;5.90;99.90;;;;;;4383342;28;656508;-77
2023/02/19 09:19:49;;;;;;;9.27;4.10;;;5.80;99.90;;;;;;4401904;28;656852;-77
2023/02/19 09:22:36;;;;;;;6.60;3.87;;;5.80;99.90;;;;;;4388759;28;656778;-83
2023/02/19 09:25:24;;;;;;;7.03;4.27;;;5.70;99.90;;;;;;4397418;28;656962;-77
2023/02/19 09:28:11;;;;;;;10.97;4.90;;;5.70;99.90;;;;;;4380834;28;656449;-79
2023/02/19 09:31:03;;;;;;;9.87;4.53;;;5.70;99.90;;;;;;4407456;28;658161;-77
2023/02/19 09:33:50;;;;;;;8.30;5.20;;;5.80;99.90;;;;;;4370764;28;656850;-75
2023/02/19 09:36:37;;;;;;;9.67;5.40;;;5.90;99.90;;;;;;4410114;28;656859;-81
2023/02/19 09:39:25;;;;;;;9.20;5.70;;;5.90;99.90;;;;;;4398421;28;656648;-75
2023/02/19 09:42:14;;;;;;;11.80;5.93;;;5.90;99.90;;;;;;4408324;28;656691;-74
2023/02/19 09:45:01;;;;;;;10.23;5.73;;;5.90;99.90;;;;;;4380739;28;657744;-75
2023/02/19 09:47:50;;;;;;;9.48;5.93;;;6.00;99.90;;;;;;4404939;28;658840;-74
2023/02/19 09:50:39;;;;;;;12.10;6.83;;;6.00;99.90;;;;;;4382607;28;657033;-74
2023/02/19 09:53:29;;;;;;;10.60;6.70;;;5.90;99.90;;;;;;4382150;28;657717;-74
2023/02/19 09:56:16;;;;;;;11.40;7.30;;;5.90;99.90;;;;;;4380867;28;658113;-75
2023/02/19 09:59:04;;;;;;;9.50;5.73;;;6.00;99.90;;;;;;4399412;28;658314;-75
2023/02/19 10:01:55;;;;;;;8.23;4.40;;;6.10;99.90;;;;;;4379734;28;656568;-76
2023/02/19 10:04:45;;;;;;;10.77;6.10;;;6.10;99.90;;;;;;4379695;28;657605;-75
2023/02/19 10:07:35;;;;;;;10.97;6.30;;;6.10;99.90;;;;;;4371513;28;658618;-75
2023/02/19 10:10:28;;;;;;;8.10;4.87;;;6.00;99.90;;;;;;4380729;28;658143;-74
2023/02/19 10:13:19;;;;;;;11.80;5.70;;;6.00;99.90;;;;;;4362082;28;656696;-73
2023/02/19 10:16:09;;;;;;;8.77;4.80;;;5.90;99.90;;;;;;4387401;28;657612;-75
2023/02/19 10:18:56;;;;;;;8.80;4.97;;;5.90;99.90;;;;;;4381042;28;656565;-74
2023/02/19 10:21:45;;;;;;;8.97;4.77;;;5.80;99.90;;;;;;4408418;28;657106;-74
2023/02/19 10:24:32;;;;;;;3.77;2.33;;;5.70;99.90;;;;;;4384750;28;656877;-75
2023/02/19 10:27:20;;;;;;;3.63;2.00;;;5.50;99.90;;;;;;4407842;28;656412;-76
2023/02/19 10:30:09;;;;;;;3.80;1.90;;;5.30;71.10;;;;;;4388315;28;657458;-76
2023/02/19 10:33:01;;;;;;;6.07;2.13;;;5.40;99.90;;;;;;4384632;28;656618;-77
2023/02/19 10:35:53;;;;;;;3.58;1.52;;;5.40;55.80;;;;;;4388512;28;656814;-77
2023/02/19 10:38:46;;;;;;;2.47;1.53;;;5.30;30.90;;;;;;4361519;28;656484;-76
2023/02/19 10:41:33;;;;;;;5.90;2.37;;;5.30;50.10;;;;;;4386001;28;657847;-77
2023/02/19 10:44:22;;;;;;;4.00;2.00;;;5.20;99.90;;;;;;4386263;28;656816;-75
2023/02/19 10:47:09;;;;;;;5.07;2.40;;;5.10;99.90;;;;;;4411312;28;656455;-74
2023/02/19 10:49:57;;;;;;;4.00;2.20;;;5.00;93.10;;;;;;4385523;28;656658;-78
2023/02/19 10:52:44;;;;;;;6.37;2.57;;;4.90;1.00;;;;;;4402094;28;656776;-78
2023/02/19 10:55:35;;;;;;;8.07;2.60;;;4.80;1.00;;;;;;4387982;28;655874;-77
2023/02/19 10:58:25;;;;;;;5.00;2.63;;;4.80;1.00;;;;;;4388695;28;655449;-79
2023/02/19 11:01:18;;;;;;;6.30;2.60;;;4.80;1.00;;;;;;4385874;28;656257;-78
2023/02/19 11:04:15;;;;;;;4.53;2.33;;;4.80;1.00;;;;;;4363406;28;656335;-75
2023/02/19 11:07:08;;;;;;;4.87;2.40;;;4.90;1.00;;;;;;4371725;28;656003;-78
2023/02/19 11:09:55;;;;;;;7.30;3.00;;;5.00;1.00;;;;;;4367440;28;655976;-79
2023/02/19 11:12:46;;;;;;;5.00;2.37;;;5.10;1.00;;;;;;4414183;28;657289;-80
2023/02/19 11:15:34;;;;;;;4.43;2.40;;;5.10;1.00;;;;;;4389829;28;655712;-81
2023/02/19 11:18:23;;;;;;;4.07;2.20;;;5.20;99.90;;;;;;4389192;28;655607;-74
2023/02/19 11:21:24;;;;;;;4.87;1.93;;;5.30;99.90;;;;;;4391406;28;656816;-76
2023/02/19 11:24:16;;;;;;;3.20;1.83;;;5.20;99.90;;;;;;4362902;28;656863;-81
2023/02/19 11:27:04;;;;;;;3.80;2.20;;;5.20;98.70;;;;;;4390229;28;657187;-85
2023/02/19 11:29:53;;;;;;;8.13;1.97;;;5.00;72.30;;;;;;4394518;28;656634;-83
2023/02/19 11:32:40;;;;;;;3.80;2.20;;;5.10;99.90;;;;;;4407950;28;656104;-77
2023/02/19 11:35:27;;;;;;;4.97;2.50;;;4.90;99.90;;;;;;4412609;28;657378;-80
2023/02/19 11:38:16;;;;;;;6.33;2.63;;;5.00;99.90;;;;;;4390720;28;658194;-79
2023/02/19 11:41:07;;;;;;;5.63;2.90;;;5.10;1.00;;;;;;4406954;28;656552;-81
2023/02/19 11:44:02;;;;;;;5.40;2.90;;;5.00;1.00;;;;;;4392201;28;655454;-85
2023/02/19 11:46:54;;;;;;;4.17;2.40;;;5.00;99.90;;;;;;4396647;28;656562;-85
2023/02/19 11:49:45;;;;;;;4.20;2.40;;;4.80;1.00;;;;;;4405049;28;656780;-83
2023/02/19 11:52:33;;;;;;;5.37;2.27;;;4.90;99.90;;;;;;4405111;28;657054;-82
2023/02/19 11:55:23;;;;;;;4.07;2.07;;;4.80;78.70;;;;;;4400056;28;657386;-75
2023/02/19 11:58:22;;;;;;;5.03;2.27;;;4.70;1.00;;;;;;4398422;28;656884;-76
2023/02/19 12:01:13;;;;;;;4.95;2.50;;;4.60;99.90;;;;;;4396610;28;655635;-84
2023/02/19 12:04:25;;;;;;;5.10;2.40;;;4.50;1.00;;;;;;4375205;28;656538;-81
2023/02/19 12:07:17;;;;;;;7.70;3.37;;;4.20;25.40;;;;;;4390272;28;656203;-81
2023/02/19 12:10:08;;;;;;;9.07;4.10;;;4.20;1.00;;;;;;4394643;28;656518;-77
2023/02/19 12:13:01;;;;;;;8.07;4.27;;;4.20;1.00;;;;;;4369777;28;655553;-81
2023/02/19 12:15:57;;;;;;;10.60;4.57;;;4.20;99.90;;;;;;4391737;28;655494;-82
2023/02/19 12:19:39;;;;;;;9.07;4.30;;;4.10;99.90;;;;;;4382753;28;657626;-79
2023/02/19 12:22:29;;;;;;;10.07;4.83;;;3.90;1.00;;;;;;4329303;28;656216;-80
2023/02/19 12:25:35;;;;;;;9.80;4.77;;;3.60;1.00;;;;;;4386637;28;657094;-81
2023/02/19 12:28:59;;;;;;;10.40;4.53;;;3.60;99.90;;;;;;4383890;28;656142;-83
2023/02/19 12:32:12;;;;;;;12.40;5.20;;;3.50;99.90;;;;;;4392320;28;657803;-84
2023/02/19 12:35:24;;;;;;;9.97;5.90;;;3.50;1.00;;;;;;4385905;28;657542;-85
2023/02/19 12:38:21;;;;;;;14.87;6.70;;;3.50;1.00;;;;;;4360810;28;655883;-76
2023/02/19 12:41:25;;;;;;;16.03;6.70;;;3.60;1.00;;;;;;4382921;28;656653;-82
2023/02/19 12:44:15;;;;;;;14.47;5.73;;;3.70;1.00;;;;;;4362401;28;656969;-83
2023/02/19 12:47:03;;;;;;;12.87;5.37;;;3.80;1.00;;;;;;4384858;28;656958;-82
2023/02/19 12:49:53;;;;;;;13.80;5.63;;;3.80;1.00;;;;;;4398810;28;656478;-76
2023/02/19 12:52:41;;;;;;;14.60;5.70;;;3.80;1.00;;;;;;4394522;28;656765;-80
2023/02/19 12:55:32;;;;;;;8.37;4.40;;;3.90;1.00;;;;;;4405670;28;656424;-80
2023/02/19 12:58:22;;;;;;;8.00;3.87;;;4.00;1.00;;;;;;4388030;28;655297;-77
2023/02/19 13:01:09;;;;;;;10.17;3.27;;;3.60;1.00;;;;;;4384984;28;655220;-78
2023/02/19 13:04:10;;;;;;;5.80;3.60;;;3.70;1.00;;;;;;4386881;28;656731;-77
2023/02/19 13:06:59;;;;;;;9.17;4.67;;;3.60;1.00;;;;;;4362808;28;655966;-77
2023/02/19 13:09:48;;;;;;;4.87;2.30;;;3.50;1.00;;;;;;4385112;28;656492;-76
2023/02/19 13:12:38;;;;;;;3.83;2.30;;;3.40;1.00;;;;;;4388176;28;655144;-74
2023/02/19 13:15:30;;;;;;;3.77;2.13;;;3.30;1.00;;;;;;4392548;28;655467;-74
2023/02/19 13:18:19;;;;;;;3.93;1.90;;;3.40;1.00;;;;;;4385859;28;656356;-76
2023/02/19 13:21:06;;;;;;;5.67;2.30;;;3.40;99.90;;;;;;4390097;28;656003;-78
2023/02/19 13:23:58;;;;;;;5.00;2.00;;;3.40;99.90;;;;;;4396948;28;656622;-75
2023/02/19 13:26:53;;;;;;;4.70;2.17;;;3.20;99.90;;;;;;4361168;28;656773;-76
2023/02/19 13:29:53;;;;;;;5.57;2.70;;;3.30;99.90;;;;;;4362872;28;657758;-75
2023/02/19 13:32:59;;;;;;;6.17;3.30;;;3.30;99.90;;;;;;4366380;28;656341;-76
2023/02/19 13:36:06;;;;;;;6.37;2.97;;;3.30;99.90;;;;;;4365786;28;656841;-77
2023/02/19 13:38:56;;;;;;;7.13;3.30;;;3.30;99.90;;;;;;4386500;28;657091;-76
2023/02/19 13:41:48;;;;;;;11.47;4.00;;;3.30;1.00;;;;;;4384573;28;656834;-76
2023/02/19 13:44:36;;;;;;;9.93;3.70;;;3.10;1.00;;;;;;4355494;28;656921;-75
2023/02/19 13:47:50;;;;;;;5.93;3.00;;;3.00;1.00;;;;;;4413877;28;656052;-77
2023/02/19 13:50:37;;;;;;;5.13;2.93;;;2.90;99.90;;;;;;4362662;28;655361;-75
2023/02/19 13:53:50;;;;;;;9.27;4.25;;;2.90;1.00;;;;;;4413888;28;656901;-75
2023/02/19 13:56:38;;;;;;;10.90;4.27;;;2.80;1.00;;;;;;4373388;28;656106;-75
2023/02/19 13:59:36;;;;;;;16.13;5.50;;;2.70;1.00;;;;;;4384914;28;656499;-75
2023/02/19 14:02:31;;;;;;;8.03;3.83;;;2.60;1.00;;;;;;4388570;28;656796;-74
2023/02/19 14:05:20;;;;;;;8.33;4.10;;;2.60;1.00;;;;;;4386708;28;656072;-76
2023/02/19 14:08:08;;;;;;;8.48;4.20;;;2.50;1.00;;;;;;4389543;28;656342;-75
2023/02/19 14:11:02;;;;;;;9.47;3.93;;;2.50;1.00;;;;;;4390807;28;655903;-74
2023/02/19 14:14:00;;;;;;;7.87;3.93;;;2.70;1.00;;;;;;4394343;28;656041;-75
2023/02/19 14:17:16;;;;;;;8.20;4.70;;;2.70;1.00;;;;;;4390771;28;655624;-76
2023/02/19 14:20:04;;;;;;;7.70;3.97;;;2.80;1.00;;;;;;4395565;28;655352;-76
2023/02/19 14:23:08;;;;;;;9.53;4.63;;;2.60;1.00;;;;;;4397593;28;655653;-76
2023/02/19 14:25:58;;;;;;;11.53;4.53;;;2.70;1.00;;;;;;4370958;28;655643;-75
2023/02/19 14:28:45;;;;;;;8.67;4.03;;;2.70;1.00;;;;;;4395628;28;656446;-75
2023/02/19 14:31:34;;;;;;;7.87;4.20;;;2.70;1.00;;;;;;4411367;28;656432;-76
2023/02/19 14:34:23;;;;;;;12.47;4.60;;;2.70;1.00;;;;;;4383320;28;655359;-76
2023/02/19 14:37:13;;;;;;;11.77;4.20;;;2.60;99.90;;;;;;4392473;28;656729;-76
2023/02/19 14:40:02;;;;;;;6.93;3.65;;;2.70;99.90;;;;;;4395442;28;657128;-74
2023/02/19 14:42:49;;;;;;;12.13;3.50;;;2.60;99.90;;;;;;4404774;28;656697;-77
2023/02/19 14:45:39;;;;;;;10.27;4.37;;;2.60;99.90;;;;;;4380267;28;658025;-76
2023/02/19 14:48:29;;;;;;;8.93;3.97;;;2.50;99.90;;;;;;4390942;28;658068;-76
2023/02/19 14:51:21;;;;;;;10.40;4.30;;;2.60;99.90;;;;;;4380017;28;657203;-76
2023/02/19 14:54:12;;;;;;;14.00;4.40;;;2.50;99.90;;;;;;4383333;28;658463;-77
2023/02/19 14:57:01;;;;;;;10.77;4.77;;;2.40;99.90;;;;;;4382239;28;657436;-77
2023/02/19 14:59:57;;;;;;;8.73;3.77;;;2.40;81.00;;;;;;4386647;28;657891;-77
2023/02/19 15:02:44;;;;;;;13.20;5.13;;;2.40;99.90;;;;;;4390783;28;656964;-77